Time;durP1;ratioP1;P1;durP2;ratioP2;P2;SDS_P1;SDS_P2;PMS_P1;PMS_P2;Temp;Humidity;BMP_temperature;BMP_pressure;BME280_temperature;BME280_humidity;BME280_pressure;Samples;Min_cycle;Max_cycle;Signal;HPM_P1;HPM_P2
2022/12/08 04:46:00;;;;;;;20.12;10.43;;;;;;;0.61;100.00;100392.28;1797674;79;28655;-51
2022/12/08 04:48:33;;;;;;;18.23;9.70;;;;;;;0.61;100.00;100391.42;1738883;82;21313;-51
2022/12/08 04:51:05;;;;;;;15.30;8.55;;;;;;;0.62;100.00;100399.37;1757541;81;21554;-51
2022/12/08 04:53:35;;;;;;;14.25;8.10;;;;;;;0.60;100.00;100391.92;1738448;82;21143;-50
2022/12/08 04:56:14;;;;;;;15.10;8.43;;;;;;;0.59;100.00;100393.41;1757451;81;21091;-50
2022/12/08 04:58:45;;;;;;;18.48;8.73;;;;;;;0.58;100.00;100399.78;1757946;82;21206;-51
2022/12/08 05:01:15;;;;;;;17.75;9.28;;;;;;;0.59;100.00;100395.60;1757508;82;21115;-50
2022/12/08 05:03:45;;;;;;;16.95;9.45;;;;;;;0.58;100.00;100398.44;1757502;82;21589;-56
2022/12/08 05:06:16;;;;;;;15.10;8.23;;;;;;;0.58;100.00;100410.56;1738337;82;21625;-50
2022/12/08 05:08:46;;;;;;;15.48;8.35;;;;;;;0.57;100.00;100411.55;1757518;82;21142;-50
2022/12/08 05:11:16;;;;;;;19.73;9.00;;;;;;;0.54;100.00;100409.13;1757587;80;21130;-49
2022/12/08 05:13:47;;;;;;;18.85;9.93;;;;;;;0.54;100.00;100412.67;1738747;82;21118;-50
2022/12/08 05:16:17;;;;;;;20.85;10.68;;;;;;;0.53;100.00;100415.01;1757489;81;21114;-50
2022/12/08 05:18:48;;;;;;;20.75;10.95;;;;;;;0.55;100.00;100416.22;1757678;81;21288;-50
2022/12/08 05:21:19;;;;;;;18.62;9.80;;;;;;;0.56;100.00;100424.67;1763557;81;21143;-50
2022/12/08 05:23:50;;;;;;;20.12;10.15;;;;;;;0.54;100.00;100427.50;1757651;82;21158;-49
2022/12/08 05:26:22;;;;;;;20.77;9.68;;;;;;;0.52;100.00;100431.31;1757472;81;21205;-49
2022/12/08 05:28:52;;;;;;;20.30;10.05;;;;;;;0.50;100.00;100434.64;1757431;80;21115;-51
2022/12/08 05:31:22;;;;;;;20.10;9.90;;;;;;;0.49;100.00;100439.67;1763584;80;21189;-49
2022/12/08 05:33:52;;;;;;;19.07;9.85;;;;;;;0.45;100.00;100453.91;1738317;82;21604;-50
2022/12/08 05:36:23;;;;;;;19.10;9.50;;;;;;;0.43;100.00;100449.63;1757805;81;21151;-51
2022/12/08 05:38:56;;;;;;;19.65;9.38;;;;;;;0.42;100.00;100450.13;1757507;80;21134;-50
2022/12/08 05:41:27;;;;;;;19.62;9.08;;;;;;;0.41;100.00;100454.30;1757421;81;21553;-50
2022/12/08 05:43:57;;;;;;;20.23;9.40;;;;;;;0.40;100.00;100462.88;1757799;81;21103;-50
2022/12/08 05:46:27;;;;;;;21.80;9.88;;;;;;;0.40;100.00;100459.33;1751250;81;21544;-49
2022/12/08 05:49:00;;;;;;;19.12;9.60;;;;;;;0.38;100.00;100463.99;1765713;81;21150;-51
2022/12/08 05:51:30;;;;;;;22.17;10.10;;;;;;;0.36;100.00;100459.23;1765602;81;21106;-50
2022/12/08 05:54:01;;;;;;;22.62;10.32;;;;;;;0.35;100.00;100454.82;1765754;81;21159;-49
2022/12/08 05:56:31;;;;;;;20.82;10.50;;;;;;;0.36;100.00;100457.39;1765547;81;21560;-50
2022/12/08 05:59:01;;;;;;;24.67;12.18;;;;;;;0.39;100.00;100458.97;1765538;81;21114;-50
2022/12/08 06:01:31;;;;;;;20.35;10.55;;;;;;;0.40;100.00;100462.02;1776041;81;21607;-48
2022/12/08 06:04:02;;;;;;;19.02;10.00;;;;;;;0.39;100.00;100467.91;1717126;83;21154;-50
2022/12/08 06:06:35;;;;;;;22.42;10.78;;;;;;;0.39;100.00;100471.09;1717610;83;21134;-50
2022/12/08 06:09:06;;;;;;;22.58;10.38;;;;;;;0.38;100.00;100474.77;1717493;83;21276;-49
2022/12/08 06:11:37;;;;;;;19.82;10.45;;;;;;;0.39;100.00;100472.44;1717548;83;21564;-50
2022/12/08 06:14:11;;;;;;;20.05;9.95;;;;;;;0.41;100.00;100475.86;1693999;83;21193;-50
2022/12/08 06:16:40;;;;;;;32.45;15.50;;;;;;;0.41;100.00;100475.36;1717272;83;21169;-49
2022/12/08 06:19:11;;;;;;;39.70;17.12;;;;;;;0.41;100.00;100481.25;1717283;83;21115;-50
2022/12/08 06:21:41;;;;;;;26.23;13.35;;;;;;;0.41;100.00;100480.75;1717376;83;21128;-51
2022/12/08 06:24:11;;;;;;;18.77;10.38;;;;;;;0.43;100.00;100479.28;1717667;83;21178;-50
2022/12/08 06:26:40;;;;;;;19.82;9.98;;;;;;;0.45;100.00;100485.39;1717278;83;21134;-51
2022/12/08 06:29:12;;;;;;;19.30;9.73;;;;;;;0.43;100.00;100488.71;1752747;81;21193;-51
2022/12/08 06:31:43;;;;;;;21.97;10.65;;;;;;;0.39;100.00;100489.95;1765643;81;21568;-50
2022/12/08 06:34:14;;;;;;;21.85;9.38;;;;;;;0.37;100.00;100498.17;1765526;81;21919;-51
2022/12/08 06:36:45;;;;;;;20.70;10.13;;;;;;;0.38;100.00;100497.68;1750792;81;21194;-51
2022/12/08 06:39:15;;;;;;;21.65;11.40;;;;;;;0.36;100.00;100498.30;1765527;81;21192;-51
2022/12/08 06:44:37;;;;;;;22.13;11.12;;;;;;;0.37;100.00;100509.45;1765615;81;21189;-50
2022/12/08 06:47:08;;;;;;;22.67;10.85;;;;;;;0.41;100.00;100511.75;1775956;81;21146;-51
2022/12/08 06:49:38;;;;;;;22.67;10.08;;;;;;;0.45;100.00;100517.73;1765557;81;21161;-52
2022/12/08 06:52:10;;;;;;;32.78;15.13;;;;;;;0.45;100.00;100520.44;1765417;81;21118;-51
2022/12/08 06:54:40;;;;;;;29.27;13.75;;;;;;;0.46;100.00;100520.80;1765383;81;21087;-51
2022/12/08 06:57:11;;;;;;;45.03;19.75;;;;;;;0.45;100.00;100519.94;1765595;81;21225;-51
2022/12/08 06:59:41;;;;;;;28.73;13.03;;;;;;;0.44;100.00;100520.07;1765603;81;21161;-51
2022/12/08 07:02:14;;;;;;;20.25;10.15;;;;;;;0.45;100.00;100513.20;1765810;81;21162;-52
2022/12/08 07:04:45;;;;;;;28.23;13.88;;;;;;;0.43;100.00;100527.30;1765812;81;21087;-54
2022/12/08 07:07:15;;;;;;;21.95;10.45;;;;;;;0.40;100.00;100521.31;1765723;81;21272;-54
2022/12/08 07:09:47;;;;;;;27.05;13.15;;;;;;;0.40;100.00;100524.01;1775769;81;21153;-52
2022/12/08 07:12:18;;;;;;;16.97;9.05;;;;;;;0.41;100.00;100528.41;1776067;81;21118;-51
2022/12/08 07:14:48;;;;;;;22.90;10.32;;;;;;;0.45;100.00;100529.87;1749704;81;21126;-49
2022/12/08 07:17:19;;;;;;;17.57;9.00;;;;;;;0.47;100.00;100530.59;1775772;81;21158;-49
2022/12/08 07:19:51;;;;;;;21.75;10.30;;;;;;;0.48;100.00;100532.30;1765656;81;21102;-51
2022/12/08 07:22:21;;;;;;;24.15;10.58;;;;;;;0.44;100.00;100526.80;1775544;81;21099;-50
2022/12/08 07:24:50;;;;;;;19.75;10.18;;;;;;;0.44;100.00;100528.16;1765488;81;21177;-47
2022/12/08 07:27:21;;;;;;;19.82;9.88;;;;;;;0.48;100.00;100533.65;1765651;81;21111;-48
2022/12/08 07:29:52;;;;;;;19.27;10.25;;;;;;;0.47;100.00;100534.64;1765529;81;21290;-48
2022/12/08 07:32:23;;;;;;;22.82;11.12;;;;;;;0.48;100.00;100539.89;1765756;80;21102;-48
2022/12/08 07:34:54;;;;;;;23.40;11.15;;;;;;;0.48;100.00;100538.55;1752545;81;21150;-48
2022/12/08 07:37:25;;;;;;;22.73;10.60;;;;;;;0.51;100.00;100546.38;1765388;80;21115;-50
2022/12/08 07:39:55;;;;;;;23.05;10.82;;;;;;;0.54;100.00;100556.05;1765434;81;21554;-51
2022/12/08 07:42:25;;;;;;;26.10;11.12;;;;;;;0.55;100.00;100559.95;1765491;81;21190;-49
2022/12/08 07:44:54;;;;;;;18.75;9.83;;;;;;;0.56;100.00;100556.77;1764190;81;21103;-50
2022/12/08 07:47:23;;;;;;;18.87;10.13;;;;;;;0.57;100.00;100551.73;1757182;81;21122;-51
2022/12/08 07:49:53;;;;;;;22.32;10.70;;;;;;;0.53;100.00;100547.59;1756823;82;21150;-49
2022/12/08 07:52:23;;;;;;;22.00;9.93;;;;;;;0.51;100.00;100550.42;1757117;81;21111;-50
2022/12/08 07:54:54;;;;;;;21.93;10.45;;;;;;;0.52;100.00;100560.22;1756906;81;21710;-50
2022/12/08 07:57:25;;;;;;;20.75;9.95;;;;;;;0.54;100.00;100557.39;1756941;82;21640;-49
2022/12/08 07:59:55;;;;;;;24.05;11.70;;;;;;;0.55;100.00;100563.14;1756843;82;21554;-51
2022/12/08 08:02:28;;;;;;;25.35;11.53;;;;;;;0.54;100.00;100566.83;1757223;81;21115;-49
2022/12/08 08:04:59;;;;;;;25.68;11.57;;;;;;;0.51;100.00;100572.47;1757212;82;21154;-50
2022/12/08 08:07:31;;;;;;;22.45;10.82;;;;;;;0.52;100.00;100566.10;1756928;82;21201;-50
2022/12/08 08:10:02;;;;;;;21.65;10.63;;;;;;;0.53;100.00;100567.81;1756847;82;21534;-50
2022/12/08 08:12:33;;;;;;;19.25;9.38;;;;;;;0.54;100.00;100576.26;1756910;81;21147;-50
2022/12/08 08:15:04;;;;;;;23.75;10.82;;;;;;;0.54;100.00;100573.56;1756880;81;21115;-51
2022/12/08 08:17:35;;;;;;;24.05;10.50;;;;;;;0.54;100.00;100577.61;1738111;82;21095;-51
2022/12/08 08:20:07;;;;;;;22.07;10.72;;;;;;;0.57;100.00;100578.70;1756951;82;21166;-53
2022/12/08 08:22:38;;;;;;;21.82;10.38;;;;;;;0.60;100.00;100581.13;1756895;82;21600;-51
2022/12/08 08:25:08;;;;;;;21.75;10.65;;;;;;;0.62;100.00;100580.52;1704420;84;21127;-53
2022/12/08 08:27:39;;;;;;;23.85;12.03;;;;;;;0.61;100.00;100580.15;1704504;83;21170;-52
2022/12/08 08:30:10;;;;;;;23.20;10.68;;;;;;;0.58;100.00;100581.76;1704322;84;21134;-52
2022/12/08 08:32:42;;;;;;;21.23;10.20;;;;;;;0.58;100.00;100585.31;1703463;84;21319;-52
2022/12/08 08:35:13;;;;;;;22.50;11.33;;;;;;;0.58;100.00;100585.80;1704295;84;21311;-52
2022/12/08 08:37:43;;;;;;;22.52;11.30;;;;;;;0.59;100.00;100587.52;1704270;84;21190;-52
2022/12/08 08:40:17;;;;;;;24.23;12.20;;;;;;;0.60;100.00;100586.53;1704402;84;21226;-52
2022/12/08 08:42:47;;;;;;;26.95;11.43;;;;;;;0.60;100.00;100581.98;1719537;82;21542;-53
2022/12/08 08:45:17;;;;;;;20.30;10.35;;;;;;;0.61;100.00;100578.80;1758559;80;21546;-54
2022/12/08 08:47:47;;;;;;;20.10;10.08;;;;;;;0.61;100.00;100586.40;1765424;81;21115;-54
2022/12/08 08:50:17;;;;;;;21.23;10.75;;;;;;;0.63;100.00;100580.38;1765496;81;21134;-54
2022/12/08 08:52:46;;;;;;;24.02;11.28;;;;;;;0.62;100.00;100580.52;1765489;80;21615;-52
2022/12/08 08:55:19;;;;;;;19.30;9.68;;;;;;;0.60;100.00;100582.48;1765561;80;21126;-55
2022/12/08 08:57:48;;;;;;;21.45;9.80;;;;;;;0.56;100.00;100582.38;1765441;81;21154;-52
2022/12/08 09:00:19;;;;;;;23.25;10.98;;;;;;;0.56;100.00;100574.30;1763782;81;21130;-52
2022/12/08 09:02:49;;;;;;;20.32;10.43;;;;;;;0.56;100.00;100580.53;1701232;84;21132;-52
2022/12/08 09:05:19;;;;;;;22.27;11.20;;;;;;;0.57;100.00;100582.74;1730206;83;21145;-53
2022/12/08 09:07:49;;;;;;;26.73;12.60;;;;;;;0.58;100.00;100586.66;1731515;83;21137;-53
2022/12/08 09:10:19;;;;;;;27.70;11.95;;;;;;;0.59;100.00;100587.02;1731595;83;21121;-50
2022/12/08 09:12:49;;;;;;;28.70;12.78;;;;;;;0.61;100.00;100582.84;1722859;81;21231;-51
2022/12/08 09:15:19;;;;;;;34.15;15.28;;;;;;;0.63;100.00;100583.58;1719244;83;21536;-50
2022/12/08 09:17:48;;;;;;;27.90;13.25;;;;;;;0.59;100.00;100584.33;1702905;84;21190;-51
2022/12/08 09:20:20;;;;;;;28.83;13.50;;;;;;;0.59;100.00;100584.33;1708798;83;21115;-51
2022/12/08 09:22:49;;;;;;;33.23;14.15;;;;;;;0.62;100.00;100580.02;1695456;84;21167;-52
2022/12/08 09:25:20;;;;;;;30.57;13.03;;;;;;;0.62;100.00;100580.02;1695640;84;21200;-52
2022/12/08 09:27:51;;;;;;;26.15;12.03;;;;;;;0.67;100.00;100581.02;1695506;84;21140;-54
2022/12/08 09:30:21;;;;;;;39.30;17.80;;;;;;;0.69;100.00;100582.23;1691919;84;21129;-55
2022/12/08 09:32:52;;;;;;;35.28;15.75;;;;;;;0.69;100.00;100579.53;1713549;83;21194;-54
2022/12/08 09:35:21;;;;;;;51.75;21.70;;;;;;;0.67;100.00;100579.66;1702562;84;21125;-52
2022/12/08 09:37:51;;;;;;;35.23;15.72;;;;;;;0.67;100.00;100581.50;1713382;84;21640;-51
2022/12/08 09:40:22;;;;;;;32.83;14.00;;;;;;;0.65;100.00;100582.98;1702569;84;21201;-52
2022/12/08 09:43:03;;;;;;;26.23;11.85;;;;;;;0.63;100.00;100583.08;1713460;84;21167;-54
2022/12/08 09:45:35;;;;;;;30.68;12.50;;;;;;;0.62;100.00;100582.72;1702103;84;21130;-52
2022/12/08 09:48:13;;;;;;;29.12;11.80;;;;;;;0.64;100.00;100595.58;1687539;84;21538;-51
2022/12/08 09:50:56;;;;;;;27.82;11.53;;;;;;;0.64;100.00;100594.72;1700080;84;21187;-51
2022/12/08 09:53:45;;;;;;;30.25;13.03;;;;;;;0.61;100.00;100582.84;1714324;82;21137;-49
2022/12/08 09:56:24;;;;;;;36.73;14.45;;;;;;;0.61;100.00;100586.40;1657550;85;21303;-50
2022/12/08 09:59:27;;;;;;;32.53;14.47;;;;;;;0.64;100.00;100581.23;1657541;86;21620;-50
2022/12/08 10:02:02;;;;;;;39.08;13.88;;;;;;;0.72;100.00;100577.44;1829661;77;22118;-51
2022/12/08 10:04:36;;;;;;;36.93;15.05;;;;;;;0.68;100.00;100583.22;1755528;80;21146;-52
2022/12/08 14:09:45;;;;;;;59.50;20.40;;;;;;;-0.36;100.00;100611.46;1719116;82;21157;-61
2022/12/08 14:12:26;;;;;;;62.15;21.68;;;;;;;-0.30;100.00;100609.26;1758105;81;21619;-62
2022/12/08 14:15:04;;;;;;;59.80;20.88;;;;;;;-0.27;100.00;100607.66;1757875;81;21101;-61
2022/12/08 14:17:34;;;;;;;44.88;18.77;;;;;;;-0.22;100.00;100613.53;1757869;81;21137;-62
2022/12/08 14:20:31;;;;;;;46.33;19.40;;;;;;;-0.18;100.00;100612.30;1758018;81;21201;-61
2022/12/08 14:23:05;;;;;;;40.50;16.55;;;;;;;-0.14;100.00;100621.36;1756481;81;21129;-61
2022/12/08 14:25:35;;;;;;;34.05;15.13;;;;;;;-0.11;100.00;100616.22;1758229;81;21433;-61
2022/12/08 14:28:05;;;;;;;33.65;14.10;;;;;;;-0.09;100.00;100615.11;1758036;81;21177;-62
2022/12/08 14:30:36;;;;;;;36.23;16.30;;;;;;;-0.06;100.00;100612.17;1758146;81;21177;-62
2022/12/08 14:33:05;;;;;;;38.88;16.00;;;;;;;-0.02;100.00;100614.13;1757954;81;21299;-62
2022/12/08 14:35:37;;;;;;;38.13;16.40;;;;;;;0.01;100.00;100609.87;1707384;81;21117;-62
2022/12/08 14:38:15;;;;;;;39.67;16.57;;;;;;;0.06;100.00;100610.83;1758025;81;21181;-64
2022/12/08 14:41:05;;;;;;;36.23;15.50;;;;;;;0.08;100.00;100609.73;1758046;81;21101;-63
2022/12/08 14:43:34;;;;;;;43.92;17.10;;;;;;;0.11;100.00;100612.17;1746333;81;21161;-62
2022/12/08 14:46:22;;;;;;;46.68;17.48;;;;;;;0.13;100.00;100610.20;1730353;81;21211;-62
2022/12/08 14:48:53;;;;;;;47.88;18.42;;;;;;;0.12;100.00;100623.31;1758109;81;21480;-62
2022/12/08 14:51:29;;;;;;;58.45;20.97;;;;;;;0.12;100.00;100621.11;1757782;81;21153;-62
2022/12/08 14:54:09;;;;;;;52.67;19.95;;;;;;;0.13;100.00;100609.35;1758018;81;21164;-61
2022/12/08 14:56:55;;;;;;;42.65;17.00;;;;;;;0.12;100.00;100612.53;1757992;81;21129;-62
2022/12/08 14:59:32;;;;;;;43.63;17.25;;;;;;;0.11;100.00;100603.23;1757179;81;21106;-61
2022/12/08 15:02:25;;;;;;;44.77;17.50;;;;;;;0.13;100.00;100617.44;1757463;81;21197;-61
2022/12/08 15:05:01;;;;;;;37.17;15.68;;;;;;;0.14;100.00;100611.92;1744979;81;21272;-61
2022/12/08 15:07:48;;;;;;;40.70;16.67;;;;;;;0.13;100.00;100609.35;1757841;81;21165;-63
2022/12/08 15:10:25;;;;;;;40.35;16.27;;;;;;;0.13;100.00;100608.00;1724063;83;21156;-64
2022/12/08 15:13:10;;;;;;;42.88;15.80;;;;;;;0.14;100.00;100602.98;1724217;83;21160;-63
2022/12/08 15:15:52;;;;;;;37.98;15.43;;;;;;;0.15;100.00;100614.98;1723952;83;21117;-63
2022/12/08 15:18:36;;;;;;;38.33;15.28;;;;;;;0.20;100.00;100619.98;1723644;83;21129;-63
2022/12/08 15:21:08;;;;;;;41.02;15.43;;;;;;;0.19;100.00;100615.09;1723713;83;21122;-63
2022/12/08 15:23:54;;;;;;;41.83;17.30;;;;;;;0.18;100.00;100612.03;1723301;83;21205;-63
2022/12/08 15:26:25;;;;;;;48.70;18.05;;;;;;;0.19;100.00;100611.54;1723597;82;21146;-63
2022/12/08 15:28:57;;;;;;;44.63;18.32;;;;;;;0.23;100.00;100618.39;1723412;83;21125;-63
2022/12/08 15:31:26;;;;;;;44.75;17.82;;;;;;;0.23;100.00;100623.78;1695533;83;21140;-63
2022/12/08 15:33:55;;;;;;;46.48;18.05;;;;;;;0.25;100.00;100619.12;1723754;83;21121;-63
2022/12/08 15:36:28;;;;;;;39.88;16.05;;;;;;;0.25;100.00;100617.77;1723486;83;21164;-64
2022/12/08 15:38:57;;;;;;;33.70;14.80;;;;;;;0.24;100.00;100616.92;1723854;83;21125;-61
2022/12/08 15:41:28;;;;;;;38.05;15.13;;;;;;;0.26;100.00;100610.91;1723499;83;21598;-63
2022/12/08 15:44:03;;;;;;;30.90;13.58;;;;;;;0.27;100.00;100613.11;1723513;83;21133;-62
2022/12/08 15:46:34;;;;;;;36.50;14.87;;;;;;;0.27;100.00;100617.16;1727247;82;21190;-63
2022/12/08 15:49:04;;;;;;;39.35;16.12;;;;;;;0.24;100.00;100626.34;1739135;82;21635;-63
2022/12/08 15:51:37;;;;;;;33.75;14.90;;;;;;;0.22;100.00;100620.72;1716995;82;21209;-62
2022/12/08 15:54:06;;;;;;;32.85;14.40;;;;;;;0.18;100.00;100622.81;1717097;83;21118;-62
2022/12/08 15:56:39;;;;;;;31.23;13.15;;;;;;;0.18;100.00;100627.34;1717235;82;21569;-62
2022/12/08 15:59:17;;;;;;;30.52;12.65;;;;;;;0.18;100.00;100628.69;1713418;82;21178;-62
2022/12/08 16:01:45;;;;;;;30.90;12.35;;;;;;;0.20;100.00;100626.73;1717177;83;21142;-61
2022/12/08 16:04:18;;;;;;;26.27;11.85;;;;;;;0.19;100.00;100628.56;1717386;83;21623;-62
2022/12/08 16:06:53;;;;;;;31.33;13.25;;;;;;;0.19;100.00;100627.70;1713374;83;21586;-60
2022/12/08 16:09:43;;;;;;;27.00;12.95;;;;;;;0.17;100.00;100622.45;1733151;81;21127;-62
2022/12/08 16:15:09;;;;;;;30.37;12.43;;;;;;;0.17;100.00;100622.94;1747289;82;21143;-62
2022/12/08 16:17:41;;;;;;;26.73;11.97;;;;;;;0.21;100.00;100621.21;1747497;82;21167;-62
2022/12/08 16:20:14;;;;;;;25.75;12.50;;;;;;;0.23;100.00;100619.73;1751213;82;21180;-63
2022/12/08 16:22:44;;;;;;;29.82;13.05;;;;;;;0.21;100.00;100615.82;1751154;82;21167;-62
2022/12/08 16:25:15;;;;;;;29.12;12.40;;;;;;;0.20;100.00;100622.68;1748894;82;21183;-62
2022/12/08 16:27:48;;;;;;;30.55;13.18;;;;;;;0.20;100.00;100612.77;1750646;82;21120;-61
2022/12/08 16:30:19;;;;;;;28.90;12.78;;;;;;;0.23;100.00;100613.86;1747325;82;21187;-61
2022/12/08 16:32:51;;;;;;;27.32;11.43;;;;;;;0.22;100.00;100606.75;1751300;82;21602;-61
2022/12/08 16:35:21;;;;;;;31.77;13.32;;;;;;;0.23;100.00;100608.95;1751265;82;21159;-62
2022/12/08 16:38:06;;;;;;;32.42;16.27;;;;;;;0.26;100.00;100615.44;1813994;77;27854;-59
2022/12/08 16:42:38;;;;;;;26.52;11.73;;;;;;;0.25;100.00;100606.50;1724032;83;21603;-60
2022/12/08 16:43:12;;;;;;;20.12;8.98;;;;;;;0.27;100.00;100609.06;1736415;82;21123;-60
2022/12/08 16:45:45;;;;;;;27.65;11.60;;;;;;;0.24;100.00;100613.36;1723988;83;21633;-60
2022/12/08 16:48:15;;;;;;;25.80;11.12;;;;;;;0.21;100.00;100613.13;1739873;82;21131;-60
2022/12/08 16:50:44;;;;;;;19.37;9.55;;;;;;;0.17;100.00;100610.32;1724007;83;21107;-62
2022/12/08 16:53:14;;;;;;;21.05;9.28;;;;;;;0.15;100.00;100612.28;1723471;83;21184;-61
2022/12/08 16:55:51;;;;;;;20.08;9.45;;;;;;;0.13;100.00;100602.13;1694156;83;21301;-61
2022/12/08 16:58:21;;;;;;;25.35;11.05;;;;;;;0.12;100.00;100603.59;1739205;82;21107;-61
2022/12/08 17:00:53;;;;;;;27.52;12.93;;;;;;;0.07;100.00;100593.20;1723881;83;21118;-61
2022/12/08 17:03:35;;;;;;;22.90;11.15;;;;;;;0.04;100.00;100599.33;1739692;82;21127;-61
2022/12/08 17:06:19;;;;;;;23.62;10.05;;;;;;;0.02;100.00;100602.64;1720692;83;21125;-61
2022/12/08 17:08:51;;;;;;;22.82;10.78;;;;;;;-0.01;100.00;100595.63;1739798;82;21236;-61
2022/12/08 17:11:22;;;;;;;23.90;11.03;;;;;;;-0.04;100.00;100587.31;1724133;83;21514;-61
2022/12/08 17:13:52;;;;;;;22.25;10.80;;;;;;;-0.06;100.00;100589.28;1739851;82;21123;-61
2022/12/08 17:16:21;;;;;;;24.87;11.70;;;;;;;-0.06;100.00;100589.28;1723912;83;21549;-61
2022/12/08 17:18:52;;;;;;;32.00;12.65;;;;;;;-0.04;100.00;100589.15;1739947;82;21147;-61
2022/12/08 17:21:21;;;;;;;31.93;13.93;;;;;;;-0.04;100.00;100587.31;1724131;83;21166;-61
2022/12/08 17:23:51;;;;;;;30.70;13.00;;;;;;;-0.06;100.00;100589.77;1740189;82;21175;-60
2022/12/08 17:26:20;;;;;;;30.75;13.83;;;;;;;-0.05;100.00;100579.36;1724024;83;21090;-61
2022/12/08 17:28:49;;;;;;;30.68;12.10;;;;;;;-0.03;100.00;100581.44;1740098;82;21613;-60
2022/12/08 17:31:20;;;;;;;28.23;12.30;;;;;;;-0.06;100.00;100585.23;1721161;83;21165;-61
2022/12/08 17:33:51;;;;;;;25.30;11.90;;;;;;;-0.07;100.00;100588.05;1738881;82;21163;-61
2022/12/08 17:36:22;;;;;;;30.55;12.00;;;;;;;-0.05;100.00;100584.75;1722898;83;21525;-62
2022/12/08 17:38:54;;;;;;;23.50;11.05;;;;;;;-0.03;100.00;100581.44;1783331;80;21569;-61
2022/12/08 17:41:23;;;;;;;21.48;9.40;;;;;;;-0.05;100.00;100579.36;1783074;80;21119;-60
2022/12/08 17:43:53;;;;;;;18.30;8.88;;;;;;;-0.05;100.00;100572.63;1783191;80;21139;-60
2022/12/08 17:46:22;;;;;;;17.17;8.43;;;;;;;-0.06;100.00;100572.27;1783306;79;21096;-60
2022/12/08 17:48:51;;;;;;;20.08;8.83;;;;;;;-0.08;100.00;100572.39;1782863;79;21107;-61
2022/12/08 17:51:20;;;;;;;20.12;9.78;;;;;;;-0.08;100.00;100574.22;1782624;80;21194;-59
2022/12/08 17:53:49;;;;;;;21.05;9.28;;;;;;;-0.10;100.00;100570.80;1782676;80;21178;-60
2022/12/08 17:56:19;;;;;;;22.22;9.75;;;;;;;-0.09;100.00;100576.06;1782709;80;21123;-59
2022/12/08 17:58:48;;;;;;;22.05;9.40;;;;;;;-0.09;100.00;100565.28;1782784;80;21174;-60
2022/12/08 18:01:21;;;;;;;20.00;9.38;;;;;;;-0.08;100.00;100571.04;1782711;80;21098;-59
2022/12/08 18:03:51;;;;;;;22.75;9.75;;;;;;;-0.07;100.00;100575.45;1782649;79;21155;-59
2022/12/08 18:06:20;;;;;;;18.85;9.18;;;;;;;-0.05;100.00;100572.63;1782691;79;21154;-60
2022/12/08 18:08:49;;;;;;;23.98;9.88;;;;;;;-0.04;100.00;100574.34;1782713;80;21119;-60
2022/12/08 18:11:18;;;;;;;23.22;10.68;;;;;;;-0.03;100.00;100576.05;1782744;80;21115;-60
2022/12/08 18:13:48;;;;;;;23.92;11.05;;;;;;;-0.03;100.00;100580.09;1782713;80;21119;-58
2022/12/08 18:16:18;;;;;;;26.90;11.45;;;;;;;-0.02;100.00;100579.11;1782686;80;21543;-59
2022/12/08 18:18:48;;;;;;;28.23;11.43;;;;;;;-0.01;100.00;100574.09;1783067;80;21115;-59
2022/12/08 18:21:17;;;;;;;28.17;12.47;;;;;;;-0.02;100.00;100577.76;1783020;79;21156;-56
2022/12/08 18:23:47;;;;;;;27.55;11.65;;;;;;;-0.05;100.00;100574.83;1782171;80;21165;-60
2022/12/08 18:26:16;;;;;;;26.37;10.90;;;;;;;-0.05;100.00;100574.83;1782918;80;21095;-60
2022/12/08 18:28:45;;;;;;;30.85;11.93;;;;;;;-0.06;100.00;100583.03;1782785;80;21604;-59
2022/12/08 18:31:17;;;;;;;29.32;12.20;;;;;;;-0.04;100.00;100587.31;1782768;80;21146;-59
2022/12/08 18:33:46;;;;;;;26.65;11.80;;;;;;;-0.05;100.00;100582.91;1782548;80;21150;-59
2022/12/08 18:36:22;;;;;;;30.65;12.33;;;;;;;-0.06;100.00;100581.69;1782565;80;21187;-60
2022/12/08 18:38:52;;;;;;;32.30;12.65;;;;;;;-0.07;100.00;100575.94;1782908;80;21146;-60
2022/12/08 18:41:24;;;;;;;26.95;11.53;;;;;;;-0.09;100.00;100569.33;1782762;80;21194;-59
2022/12/08 18:43:54;;;;;;;27.30;11.25;;;;;;;-0.08;100.00;100570.19;1782576;80;21159;-59
2022/12/08 18:46:23;;;;;;;25.82;12.10;;;;;;;-0.07;100.00;100572.75;1782729;79;21134;-59
2022/12/08 18:48:52;;;;;;;28.70;12.28;;;;;;;-0.05;100.00;100568.58;1782635;80;21087;-60
2022/12/08 18:51:23;;;;;;;24.87;10.98;;;;;;;-0.06;100.00;100568.22;1782716;80;21526;-58
2022/12/08 18:53:52;;;;;;;30.05;12.05;;;;;;;-0.05;100.00;100571.28;1782597;80;21358;-59
2022/12/08 18:56:28;;;;;;;25.68;10.90;;;;;;;-0.05;100.00;100559.16;1782612;80;21152;-58
2022/12/08 18:59:00;;;;;;;19.40;8.00;;;;;;;-0.02;100.00;100554.38;1782932;79;21150;-59
2022/12/08 19:01:32;;;;;;;29.57;12.40;;;;;;;0.01;100.00;100550.61;1782529;79;21147;-60
2022/12/08 19:04:03;;;;;;;31.90;12.93;;;;;;;-0.03;100.00;100546.42;1782639;80;21111;-59
2022/12/08 19:06:37;;;;;;;27.13;11.35;;;;;;;-0.09;100.00;100544.23;1779693;80;21115;-61
